createdAt,value
2022-11-01T00:04:37.880Z,660.27907
2022-11-01T00:09:39.461Z,652.04598
2022-11-01T00:14:41.221Z,652.04598
2022-11-01T00:19:42.829Z,652.04598
2022-11-01T00:24:44.310Z,668.70588
2022-11-01T00:29:45.806Z,652.04598
2022-11-01T00:34:47.238Z,652.04598
2022-11-01T00:39:48.694Z,636.13483
2022-11-01T00:44:50.368Z,636.13483
2022-11-01T00:49:52.030Z,613.56522
2022-11-01T00:54:53.478Z,620.92308
2022-11-01T00:59:54.926Z,620.92308
2022-11-01T01:04:56.698Z,620.92308
2022-11-01T01:09:58.258Z,599.31915
2022-11-01T01:15:00.267Z,599.31915
2022-11-01T01:20:01.801Z,620.92308
2022-11-01T01:25:03.707Z,606.36559
2022-11-01T01:30:05.309Z,599.31915
2022-11-01T01:35:07.155Z,599.31915
2022-11-01T01:40:08.933Z,599.31915
2022-11-01T01:45:11.026Z,613.56522
2022-11-01T01:50:12.761Z,599.31915
2022-11-01T01:55:14.648Z,592.42105
2022-11-01T02:00:16.811Z,599.31915
2022-11-01T02:05:18.619Z,606.36559
2022-11-01T02:10:20.409Z,613.56522
2022-11-01T02:15:22.161Z,620.92308
2022-11-01T02:20:24.275Z,606.36559
2022-11-01T02:25:26.105Z,599.31915
2022-11-01T02:30:27.717Z,606.36559
2022-11-01T02:35:29.591Z,606.36559
2022-11-01T02:40:31.400Z,606.36559
2022-11-01T02:45:33.403Z,606.36559
2022-11-01T02:50:35.180Z,606.36559
2022-11-01T02:55:36.946Z,599.31915
2022-11-01T03:00:38.797Z,599.31915
2022-11-01T03:05:40.337Z,585.66667
2022-11-01T03:10:41.828Z,592.42105
2022-11-01T03:15:43.739Z,585.66667
2022-11-01T03:20:45.276Z,579.05155
2022-11-01T03:25:46.728Z,572.57143
2022-11-01T03:30:48.360Z,579.05155
2022-11-01T03:35:49.915Z,572.57143
2022-11-01T03:40:51.371Z,566.22222
2022-11-01T03:45:53.683Z,560
2022-11-01T03:50:55.191Z,560
2022-11-01T03:55:56.819Z,536.30769
2022-11-01T04:00:58.470Z,542.05825
2022-11-01T04:05:59.979Z,530.66667
2022-11-01T04:11:01.784Z,519.70093
2022-11-01T04:16:03.748Z,525.13208
2022-11-01T04:21:05.239Z,536.30769
2022-11-01T04:26:07.150Z,536.30769
2022-11-01T04:31:08.772Z,530.66667
2022-11-01T04:36:10.730Z,530.66667
2022-11-01T04:41:12.476Z,542.05825
2022-11-01T04:46:14.686Z,547.92157
2022-11-01T04:51:16.763Z,542.05825
2022-11-01T04:56:18.489Z,519.70093
2022-11-01T05:01:20.521Z,519.70093
2022-11-01T05:06:22.469Z,525.13208
2022-11-01T05:11:24.308Z,553.90099
2022-11-01T05:16:26.351Z,572.57143
2022-11-01T05:21:28.168Z,579.05155
2022-11-01T05:26:29.842Z,547.92157
2022-11-01T05:31:31.632Z,494
2022-11-01T05:36:33.470Z,560
2022-11-01T05:41:35.141Z,560
2022-11-01T05:46:37.147Z,560
2022-11-01T05:51:38.841Z,536.30769
2022-11-01T05:56:40.718Z,514.37037
2022-11-01T06:01:42.663Z,572.57143
2022-11-01T06:06:44.365Z,566.22222
2022-11-01T06:11:45.843Z,560
2022-11-01T06:16:47.917Z,560
2022-11-01T06:21:49.452Z,566.22222
2022-11-01T06:26:50.954Z,547.92157
2022-11-01T06:31:52.728Z,613.56522
2022-11-01T06:36:54.342Z,644
2022-11-01T06:41:56.158Z,628.44444
2022-11-01T06:46:58.290Z,628.44444
2022-11-01T06:52:00.158Z,644
2022-11-01T06:57:01.635Z,620.92308
2022-11-01T07:02:03.388Z,660.27907
2022-11-01T07:07:04.962Z,660.27907
2022-11-01T07:12:06.939Z,628.44444
2022-11-01T07:17:08.993Z,620.92308
2022-11-01T07:22:10.891Z,606.36559
2022-11-01T07:27:16.418Z,628.44444
2022-11-01T07:32:20.793Z,613.56522
2022-11-01T07:37:22.619Z,606.36559
2022-11-01T07:42:24.833Z,585.66667
2022-11-01T07:47:26.919Z,636.13483
2022-11-01T07:52:28.987Z,566.22222
2022-11-01T07:57:30.925Z,572.57143
2022-11-01T08:02:32.697Z,592.42105
2022-11-01T08:07:34.751Z,579.05155
2022-11-01T08:12:36.592Z,606.36559
2022-11-01T08:17:38.595Z,606.36559
2022-11-01T08:22:40.563Z,620.92308
2022-11-01T08:27:42.613Z,620.92308
2022-11-01T08:32:44.768Z,660.27907
2022-11-01T08:37:46.532Z,620.92308
2022-11-01T08:42:48.052Z,636.13483
2022-11-01T08:47:50.043Z,606.36559
2022-11-01T08:52:51.597Z,644
2022-11-01T08:57:53.168Z,677.33333
2022-11-01T09:02:54.734Z,636.13483
2022-11-01T09:07:56.213Z,686.16867
2022-11-01T09:12:57.790Z,620.92308
2022-11-01T09:17:59.737Z,644
2022-11-01T09:23:01.650Z,695.21951
2022-11-01T09:28:03.253Z,733.74359
2022-11-01T09:33:05.250Z,744
2022-11-01T09:38:07.079Z,723.74684
2022-11-01T09:43:09.034Z,836.75362
2022-11-01T09:48:11.183Z,921.77778
2022-11-01T09:53:12.745Z,891.69231
2022-11-01T09:58:14.231Z,921.77778
2022-11-01T10:03:15.931Z,937.54839
2022-11-01T10:08:17.679Z,921.77778
2022-11-01T10:13:19.292Z,921.77778
2022-11-01T10:18:21.295Z,906.5
2022-11-01T10:23:22.812Z,937.54839
2022-11-01T10:28:24.398Z,953.83607
2022-11-01T10:33:26.046Z,970.66667
2022-11-01T10:38:41.864Z,921.77778
2022-11-01T10:44:01.179Z,953.83607
2022-11-01T10:49:03.366Z,953.83607
2022-11-01T10:54:05.351Z,1006.06897
2022-11-01T10:59:07.018Z,1024.70175
2022-11-01T11:04:08.873Z,1084.74074
2022-11-01T11:09:10.540Z,970.66667
2022-11-01T11:14:12.421Z,921.77778
2022-11-01T11:19:14.385Z,1064
2022-11-01T11:24:16.033Z,1064
2022-11-01T11:29:18.005Z,1006.06897
2022-11-01T11:34:19.762Z,1044
2022-11-01T11:39:21.410Z,1084.74074
2022-11-01T11:44:23.175Z,988.0678
2022-11-01T11:49:25.360Z,1024.70175
2022-11-01T11:54:27.131Z,1128.61538
2022-11-01T11:59:28.901Z,988.0678
2022-11-01T12:04:30.614Z,1006.06897
2022-11-01T12:09:32.428Z,1024.70175
2022-11-01T12:14:34.168Z,988.0678
2022-11-01T12:19:36.373Z,1044
2022-11-01T12:24:38.354Z,1106.26415
2022-11-01T12:29:40.345Z,877.33333
2022-11-01T12:34:42.774Z,799.55556
2022-11-01T12:39:44.626Z,863.40299
2022-11-01T12:44:46.358Z,765.33333
2022-11-01T12:49:48.155Z,906.5
2022-11-01T12:54:49.833Z,921.77778
2022-11-01T12:59:51.436Z,988.0678
2022-11-01T13:04:52.942Z,1084.74074
2022-11-01T13:09:54.431Z,1128.61538
2022-11-01T13:14:55.878Z,1044
2022-11-01T13:19:57.753Z,1044
2022-11-01T13:24:59.187Z,1044
2022-11-01T13:30:00.777Z,970.66667
2022-11-01T13:35:02.418Z,970.66667
2022-11-01T13:40:03.878Z,1006.06897
2022-11-01T13:45:05.377Z,1024.70175
2022-11-01T13:50:07.411Z,1044
2022-11-01T13:55:08.998Z,1006.06897
2022-11-01T14:00:10.669Z,988.0678
2022-11-01T14:05:12.361Z,1064
2022-11-01T14:10:13.818Z,1128.61538
2022-11-01T14:15:15.426Z,1151.84314
2022-11-01T14:20:17.515Z,988.0678
2022-11-01T14:30:21.781Z,1084.74074
2022-11-01T14:35:23.359Z,1006.06897
2022-11-01T14:40:24.840Z,1024.70175
2022-11-01T14:45:26.639Z,1044
2022-11-01T14:50:28.298Z,1024.70175
2022-11-01T14:55:29.957Z,988.0678
2022-11-01T15:00:31.620Z,1006.06897
2022-11-01T15:05:33.530Z,1044
2022-11-01T15:10:35.159Z,970.66667
2022-11-01T15:15:36.814Z,937.54839
2022-11-01T15:20:38.541Z,891.69231
2022-11-01T15:25:40.033Z,988.0678
2022-11-01T15:30:41.562Z,970.66667
2022-11-01T15:35:43.281Z,906.5
2022-11-01T15:40:44.745Z,863.40299
2022-11-01T15:45:46.187Z,849.88235
2022-11-01T15:50:48.043Z,891.69231
2022-11-01T15:55:49.480Z,921.77778
2022-11-01T16:00:51.217Z,921.77778
2022-11-01T16:05:56.928Z,891.69231
2022-11-01T16:11:01.511Z,891.69231
2022-11-01T16:16:03.048Z,891.69231
2022-11-01T16:21:05.348Z,906.5
2022-11-01T16:26:06.809Z,906.5
2022-11-01T16:31:08.527Z,937.54839
2022-11-01T16:36:10.126Z,849.88235
2022-11-01T16:41:12.138Z,877.33333
2022-11-01T16:46:13.644Z,863.40299
2022-11-01T16:51:15.313Z,824
2022-11-01T16:56:35.447Z,836.75362
2022-11-01T17:01:38.278Z,863.40299
2022-11-01T17:06:40.181Z,891.69231
2022-11-01T17:11:46.360Z,849.88235
2022-11-01T17:16:51.404Z,836.75362
2022-11-01T17:21:53.425Z,824
2022-11-01T17:26:55.013Z,863.40299
2022-11-01T17:31:56.653Z,877.33333
2022-11-01T17:36:58.260Z,891.69231
2022-11-01T17:41:59.751Z,937.54839
2022-11-01T17:47:01.639Z,937.54839
2022-11-01T17:52:03.631Z,953.83607
2022-11-01T17:57:05.424Z,1024.70175
2022-11-01T18:02:07.056Z,988.0678
2022-11-01T18:07:08.942Z,970.66667
2022-11-01T18:12:10.813Z,953.83607
2022-11-01T18:17:12.576Z,953.83607
2022-11-01T18:22:14.745Z,953.83607
2022-11-01T18:27:16.736Z,1006.06897
2022-11-01T18:32:18.661Z,970.66667
2022-11-01T18:37:20.413Z,937.54839
2022-11-01T18:42:22.178Z,953.83607
2022-11-01T18:47:24.042Z,937.54839
2022-11-01T18:52:26.308Z,953.83607
2022-11-01T18:57:27.945Z,937.54839
2022-11-01T19:02:29.738Z,937.54839
2022-11-01T19:07:50.402Z,937.54839
2022-11-01T19:13:07.313Z,970.66667
2022-11-01T19:18:09.081Z,953.83607
2022-11-01T19:23:11.205Z,1044
2022-11-01T19:28:12.799Z,970.66667
2022-11-01T19:33:14.612Z,1044
2022-11-01T19:38:16.716Z,1084.74074
2022-11-01T19:43:18.499Z,1024.70175
2022-11-01T19:48:20.244Z,1044
2022-11-01T19:53:22.232Z,1024.70175
2022-11-01T19:58:23.991Z,970.66667
2022-11-01T20:03:26.100Z,970.66667
2022-11-01T20:08:28.145Z,970.66667
2022-11-01T20:13:29.952Z,970.66667
2022-11-01T20:18:31.774Z,921.77778
2022-11-01T20:23:33.814Z,921.77778
2022-11-01T20:28:35.618Z,921.77778
2022-11-01T20:33:37.419Z,953.83607
2022-11-01T20:38:39.488Z,921.77778
2022-11-01T20:43:41.075Z,921.77778
2022-11-01T20:48:42.823Z,891.69231
2022-11-01T20:53:45.039Z,921.77778
2022-11-01T20:58:46.961Z,953.83607
2022-11-01T21:03:48.973Z,953.83607
2022-11-01T21:08:50.748Z,988.0678
2022-11-01T21:13:52.210Z,937.54839
2022-11-01T21:18:53.672Z,970.66667
2022-11-01T21:23:55.982Z,988.0678
2022-11-01T21:28:57.684Z,970.66667
2022-11-01T21:33:59.336Z,1024.70175
2022-11-01T21:39:01.002Z,1006.06897
2022-11-01T21:44:02.592Z,988.0678
2022-11-01T21:49:04.095Z,970.66667
2022-11-01T21:54:05.859Z,970.66667
2022-11-01T21:59:07.551Z,953.83607
2022-11-01T22:04:09.346Z,953.83607
2022-11-01T22:09:11.420Z,937.54839
2022-11-01T22:14:13.207Z,953.83607
2022-11-01T22:19:14.896Z,921.77778
2022-11-01T22:24:17.291Z,937.54839
2022-11-01T22:29:19.062Z,937.54839
2022-11-01T22:34:20.753Z,970.66667
2022-11-01T22:39:22.229Z,970.66667
2022-11-01T22:44:23.899Z,953.83607
2022-11-01T22:49:25.576Z,937.54839
2022-11-01T22:54:27.687Z,906.5
2022-11-01T22:59:32.908Z,849.88235
2022-11-01T23:04:34.953Z,937.54839
2022-11-01T23:09:36.778Z,953.83607
2022-11-01T23:14:38.648Z,906.5
2022-11-01T23:19:40.272Z,906.5
2022-11-01T23:24:42.575Z,906.5
2022-11-01T23:29:44.217Z,921.77778
2022-11-01T23:34:46.128Z,906.5
2022-11-01T23:39:48.362Z,937.54839
2022-11-01T23:44:50.201Z,953.83607
2022-11-01T23:49:51.625Z,970.66667
2022-11-01T23:54:53.422Z,970.66667
2022-11-01T23:59:55.100Z,988.0678
